Stump Creek, Pennsylvania
Current Conditions -  °F | °C
As of 10:53 AM on Saturday 20 Dec 2014 (Local Time) from KDUJ Reporting Station
Overcast Overcast  
Wind Chill: 18°   Ceiling: 1100
Heat Index: 25°   Visibility: 10mi
Dew Point: 20°   Wind: 6mph
Humidity: 81%   Direction: 20°NNE
Pressure: 30.2"   Gusts: NA
Location:  41.01°N, 78.84°W
Report Text: KDUJ 201553Z AUTO 02005KT 10SM OVC011 M04/M07 A3020 RMK AO2 SLP252 T10391067
Loading
Personal Weather Stations






























Interactive Weather Map New forecast layout! Learn more

10-Day Weather Forecast

Advertisements
Track Severe Weather on mobile